Time;durP1;ratioP1;P1;durP2;ratioP2;P2;SDS_P1;SDS_P2;PMS_P1;PMS_P2;Temp;Humidity;BMP_temperature;BMP_pressure;BME280_temperature;BME280_humidity;BME280_pressure;Samples;Min_cycle;Max_cycle;Signal;HPM_P1;HPM_P2
2022/09/30 00:02:14;;;;;;;;;;;;;;;20.67;48.63;100389.97;5137491;27;19923;-38
2022/09/30 00:04:40;;;;;;;;;;;;;;;20.67;48.59;100392.75;5136816;27;19923;-38
2022/09/30 00:07:05;;;;;;;;;;;;;;;20.67;48.65;100392.75;5138347;27;19935;-38
2022/09/30 00:09:31;;;;;;;;;;;;;;;20.66;48.76;100395.81;5139670;27;19927;-38
2022/09/30 00:11:56;;;;;;;;;;;;;;;20.67;48.54;100400.22;5135925;27;19942;-37
2022/09/30 00:14:22;;;;;;;;;;;;;;;20.67;48.69;100403.00;5138398;27;20363;-37
2022/09/30 00:16:48;;;;;;;;;;;;;;;20.67;48.53;100405.75;5120029;27;19923;-37
2022/09/30 00:19:13;;;;;;;;;;;;;;;20.67;48.69;100414.06;5146786;27;19942;-37
2022/09/30 00:21:39;;;;;;;;;;;;;;;20.67;48.73;100425.13;5125252;27;20302;-38
2022/09/30 00:24:05;;;;;;;;;;;;;;;20.66;48.89;100416.00;5143424;27;19951;-37
2022/09/30 00:26:30;;;;;;;;;;;;;;;20.67;48.78;100408.53;5117800;27;20018;-37
2022/09/30 00:28:57;;;;;;;;;;;;;;;20.67;48.66;100408.53;5126708;27;19927;-37
2022/09/30 00:31:23;;;;;;;;;;;;;;;20.67;48.70;100419.59;5145798;27;20430;-37
2022/09/30 00:34:20;;;;;;;;;;;;;;;20.66;48.62;100409.66;5123126;27;20360;-37
2022/09/30 00:36:38;;;;;;;;;;;;;;;20.66;48.68;100415.19;5124879;27;19954;-38
2022/09/30 00:39:04;;;;;;;;;;;;;;;20.66;48.71;100412.44;5122440;27;20402;-37
2022/09/30 00:41:29;;;;;;;;;;;;;;;20.66;48.51;100412.44;5126963;27;19961;-38
2022/09/30 00:43:55;;;;;;;;;;;;;;;20.66;48.60;100409.66;5121676;27;19930;-37
2022/09/30 00:46:36;;;;;;;;;;;;;;;20.65;48.71;100414.38;5120045;27;20382;-37
2022/09/30 00:49:11;;;;;;;;;;;;;;;20.65;48.73;100419.91;5141636;27;19923;-37
2022/09/30 00:51:38;;;;;;;;;;;;;;;20.66;48.62;100418.78;5125282;27;19966;-37
2022/09/30 00:54:05;;;;;;;;;;;;;;;20.66;48.61;100417.97;5123767;27;20009;-37
2022/09/30 00:56:32;;;;;;;;;;;;;;;20.65;48.53;100410.78;5139437;27;19967;-37
2022/09/30 00:59:03;;;;;;;;;;;;;;;20.65;48.56;100416.31;5141649;27;20459;-37
2022/09/30 01:01:29;;;;;;;;;;;;;;;20.64;48.55;100421.03;5121408;27;19955;-37
2022/09/30 01:03:58;;;;;;;;;;;;;;;20.64;48.75;100420.19;5122036;27;19930;-38
2022/09/30 01:06:23;;;;;;;;;;;;;;;20.64;48.61;100428.50;5117444;27;20031;-38
2022/09/30 01:08:49;;;;;;;;;;;;;;;20.65;48.73;100430.16;5141822;27;20320;-37
2022/09/30 01:11:14;;;;;;;;;;;;;;;20.65;48.68;100432.94;5121544;27;19923;-37
2022/09/30 01:13:40;;;;;;;;;;;;;;;20.64;48.67;100437.66;5143172;27;19939;-37
2022/09/30 01:16:18;;;;;;;;;;;;;;;20.64;48.77;100443.19;5116471;27;19991;-37
2022/09/30 01:19:03;;;;;;;;;;;;;;;20.64;48.70;100440.41;5141427;27;19928;-37
2022/09/30 01:21:49;;;;;;;;;;;;;;;20.64;48.55;100440.41;5125708;27;20371;-37
2022/09/30 01:24:26;;;;;;;;;;;;;;;20.64;48.61;100445.94;5124305;27;20010;-38
2022/09/30 01:27:11;;;;;;;;;;;;;;;20.64;48.56;100436.78;5136303;27;19958;-38
2022/09/30 01:29:48;;;;;;;;;;;;;;;20.63;48.63;100435.97;5123899;27;20409;-37
2022/09/30 01:32:20;;;;;;;;;;;;;;;20.63;48.44;100435.97;5141853;27;19938;-37
2022/09/30 01:35:06;;;;;;;;;;;;;;;20.64;48.80;100443.19;5141154;27;20049;-37
2022/09/30 01:37:42;;;;;;;;;;;;;;;20.63;48.70;100433.22;5124347;27;20374;-38
2022/09/30 01:40:13;;;;;;;;;;;;;;;20.64;48.68;100428.50;5123866;27;19965;-37
2022/09/30 01:42:41;;;;;;;;;;;;;;;20.63;48.60;100430.44;5139418;27;20002;-38
2022/09/30 01:47:45;;;;;;;;;;;;;;;20.64;48.65;100436.78;5165811;27;19938;-35
2022/09/30 01:50:28;;;;;;;;;;;;;;;20.62;48.71;100439.88;5147724;27;20423;-35
2022/09/30 01:52:56;;;;;;;;;;;;;;;20.64;48.54;100434.03;5154886;27;20009;-35
2022/09/30 01:55:24;;;;;;;;;;;;;;;20.63;48.74;100437.94;5145671;27;20067;-35
2022/09/30 01:57:52;;;;;;;;;;;;;;;20.63;48.55;100435.97;5143340;27;20388;-35
2022/09/30 02:00:18;;;;;;;;;;;;;;;20.62;48.76;100439.88;5144587;27;19970;-37
2022/09/30 02:02:47;;;;;;;;;;;;;;;20.63;48.54;100444.28;5140543;27;19923;-37
2022/09/30 02:05:18;;;;;;;;;;;;;;;20.63;48.65;100446.22;5143925;27;19973;-37
2022/09/30 02:07:48;;;;;;;;;;;;;;;20.62;48.65;100436.28;5146453;27;20014;-37
2022/09/30 02:10:16;;;;;;;;;;;;;;;20.63;48.63;100443.47;5126237;27;19970;-37
2022/09/30 02:12:46;;;;;;;;;;;;;;;20.63;48.79;100426.84;5126893;27;20349;-38
2022/09/30 02:15:17;;;;;;;;;;;;;;;20.63;48.70;100432.41;5144872;27;20010;-38
2022/09/30 02:17:45;;;;;;;;;;;;;;;20.62;48.65;100433.53;5126667;27;19962;-37
2022/09/30 02:20:12;;;;;;;;;;;;;;;20.61;48.76;100427.19;5144797;27;20383;-37
2022/09/30 02:22:42;;;;;;;;;;;;;;;20.62;48.61;100425.22;5145117;27;19969;-38
2022/09/30 02:25:08;;;;;;;;;;;;;;;20.63;48.64;100433.22;5145275;27;20034;-37
2022/09/30 02:27:41;;;;;;;;;;;;;;;20.62;48.49;100433.53;5145329;27;19985;-37
2022/09/30 02:30:08;;;;;;;;;;;;;;;20.62;48.61;100439.88;5128497;27;20379;-37
2022/09/30 02:32:34;;;;;;;;;;;;;;;20.62;48.55;100442.66;5143960;27;20095;-37
2022/09/30 02:35:04;;;;;;;;;;;;;;;20.61;48.72;100441.00;5125935;27;20071;-37
2022/09/30 02:37:31;;;;;;;;;;;;;;;20.62;48.74;100442.66;5144481;27;19966;-37
2022/09/30 02:40:17;;;;;;;;;;;;;;;20.61;48.58;100440.19;5142574;27;20103;-37
2022/09/30 02:42:42;;;;;;;;;;;;;;;20.61;48.66;100446.53;5130145;27;20008;-38
2022/09/30 02:45:09;;;;;;;;;;;;;;;20.61;48.65;100445.72;5142559;27;19924;-38
2022/09/30 02:47:40;;;;;;;;;;;;;;;20.62;48.65;100450.13;5125271;27;20027;-37
2022/09/30 02:50:09;;;;;;;;;;;;;;;20.62;48.67;100447.34;5145300;27;20146;-38
2022/09/30 02:52:55;;;;;;;;;;;;;;;20.61;48.77;100454.03;5145636;27;19976;-37
2022/09/30 02:55:25;;;;;;;;;;;;;;;20.62;48.70;100461.19;5127033;27;20073;-37
2022/09/30 03:00:29;;;;;;;;;;;;;;;20.61;48.59;100460.38;5164692;27;20290;-37
2022/09/30 03:02:56;;;;;;;;;;;;;;;20.62;48.67;100466.72;5162702;27;19938;-37
2022/09/30 03:05:22;;;;;;;;;;;;;;;20.62;48.73;100463.97;5142927;27;20018;-37
2022/09/30 03:07:47;;;;;;;;;;;;;;;20.60;48.84;100458.75;5165222;27;19923;-38
2022/09/30 03:10:13;;;;;;;;;;;;;;;20.61;48.68;100460.38;5162686;27;19930;-37
2022/09/30 03:12:59;;;;;;;;;;;;;;;20.61;48.68;100456.78;5163399;27;19923;-37
2022/09/30 03:15:29;;;;;;;;;;;;;;;20.60;48.76;100455.97;5147190;27;20120;-38
2022/09/30 03:18:14;;;;;;;;;;;;;;;20.60;48.64;100467.03;5145940;27;19965;-38
2022/09/30 03:20:44;;;;;;;;;;;;;;;20.60;48.73;100472.56;5146574;27;20371;-38
2022/09/30 03:23:17;;;;;;;;;;;;;;;20.60;48.75;100464.28;5161745;27;20006;-38
2022/09/30 03:26:01;;;;;;;;;;;;;;;20.60;48.62;100467.03;5159774;27;19973;-37
2022/09/30 03:28:29;;;;;;;;;;;;;;;20.61;48.59;100474.22;5165268;27;19962;-37
2022/09/30 03:30:59;;;;;;;;;;;;;;;20.60;48.81;100477.28;5146132;27;20018;-37
2022/09/30 03:33:44;;;;;;;;;;;;;;;20.61;48.63;100476.97;5165838;27;19930;-38
2022/09/30 03:36:14;;;;;;;;;;;;;;;20.60;48.65;100474.53;5146211;27;20018;-37
2022/09/30 03:38:48;;;;;;;;;;;;;;;20.60;48.79;100480.88;5159242;27;20010;-37
2022/09/30 03:44:13;;;;;;;;;;;;;;;20.60;48.75;100482.81;5167970;27;19926;-35
2022/09/30 03:46:43;;;;;;;;;;;;;;;20.59;48.74;100481.97;5150917;27;19994;-35
2022/09/30 03:49:09;;;;;;;;;;;;;;;20.60;48.63;100482.81;5153928;27;20339;-35
2022/09/30 03:51:36;;;;;;;;;;;;;;;20.59;48.65;100484.75;5135748;27;20354;-35
2022/09/30 03:54:04;;;;;;;;;;;;;;;20.59;48.66;100492.22;5136821;27;20014;-35
2022/09/30 03:56:30;;;;;;;;;;;;;;;20.60;48.66;100496.66;5123771;27;20022;-35
2022/09/30 03:58:56;;;;;;;;;;;;;;;20.59;48.60;100484.75;5132156;27;19923;-35
2022/09/30 04:01:22;;;;;;;;;;;;;;;20.60;48.74;100485.59;5111988;27;19924;-35
2022/09/30 04:03:51;;;;;;;;;;;;;;;20.60;48.80;100480.06;5133598;27;19931;-35
2022/09/30 04:06:17;;;;;;;;;;;;;;;20.61;48.80;100487.22;5112336;27;19970;-35
2022/09/30 04:08:43;;;;;;;;;;;;;;;20.60;48.63;100485.59;5115762;27;19932;-35
2022/09/30 04:11:09;;;;;;;;;;;;;;;20.59;48.65;100494.97;5129132;27;19963;-35
2022/09/30 04:13:34;;;;;;;;;;;;;;;20.58;48.68;100496.94;5129825;27;20299;-35
2022/09/30 04:16:00;;;;;;;;;;;;;;;20.59;48.67;100504.09;5128461;27;19931;-38
2022/09/30 04:18:25;;;;;;;;;;;;;;;20.59;48.73;100509.63;5129846;27;19928;-38
2022/09/30 04:20:51;;;;;;;;;;;;;;;20.59;48.65;100506.88;5129707;27;19972;-38
2022/09/30 04:23:16;;;;;;;;;;;;;;;20.60;48.66;100518.78;5130672;27;20379;-38
2022/09/30 04:25:42;;;;;;;;;;;;;;;20.59;48.40;100517.13;5125073;27;19932;-37
2022/09/30 04:28:08;;;;;;;;;;;;;;;20.58;48.59;100530.13;5138280;27;19927;-38
2022/09/30 04:30:33;;;;;;;;;;;;;;;20.59;48.53;100522.66;5125924;27;20283;-38
2022/09/30 04:32:59;;;;;;;;;;;;;;;20.59;48.58;100519.88;5127007;27;19957;-37
2022/09/30 04:35:27;;;;;;;;;;;;;;;20.59;48.71;100519.88;5131199;27;20347;-37
2022/09/30 04:37:52;;;;;;;;;;;;;;;20.58;48.73;100521.84;5130999;27;19923;-38
2022/09/30 04:40:18;;;;;;;;;;;;;;;20.59;48.74;100517.13;5129472;27;19930;-38
2022/09/30 04:42:43;;;;;;;;;;;;;;;20.58;48.66;100516.31;5132841;27;19924;-38
2022/09/30 04:45:09;;;;;;;;;;;;;;;20.58;48.68;100527.38;5124866;27;19924;-37
2022/09/30 04:47:35;;;;;;;;;;;;;;;20.59;48.67;100528.19;5110356;27;20422;-38
2022/09/30 04:50:01;;;;;;;;;;;;;;;20.59;48.79;100536.47;5132156;27;19932;-37
2022/09/30 04:52:26;;;;;;;;;;;;;;;20.58;48.67;100530.13;5124631;27;19927;-37
2022/09/30 04:54:53;;;;;;;;;;;;;;;20.59;48.50;100536.47;5114615;27;19928;-37
2022/09/30 04:57:18;;;;;;;;;;;;;;;20.57;48.71;100536.78;5108007;28;20010;-37
2022/09/30 04:59:44;;;;;;;;;;;;;;;20.58;48.79;100548.69;5112830;28;19923;-38
2022/09/30 05:02:11;;;;;;;;;;;;;;;20.57;48.54;100545.09;5116119;28;20328;-37
2022/09/30 05:04:37;;;;;;;;;;;;;;;20.58;48.79;100552.25;5113314;28;20369;-37
2022/09/30 05:07:05;;;;;;;;;;;;;;;20.58;48.65;100541.19;5111218;28;20391;-37
2022/09/30 05:09:30;;;;;;;;;;;;;;;20.58;48.74;100545.91;5115009;28;20026;-37
2022/09/30 05:11:56;;;;;;;;;;;;;;;20.58;48.49;100549.50;5114512;28;19935;-37
2022/09/30 05:14:22;;;;;;;;;;;;;;;20.58;48.59;100552.25;5113838;28;19984;-37
2022/09/30 05:16:47;;;;;;;;;;;;;;;20.58;48.57;100557.78;5114966;28;19931;-37
2022/09/30 05:19:13;;;;;;;;;;;;;;;20.58;48.51;100565.28;5117926;28;19945;-37
2022/09/30 05:21:39;;;;;;;;;;;;;;;20.58;48.76;100562.50;5116014;28;19923;-37
2022/09/30 05:24:05;;;;;;;;;;;;;;;20.59;48.70;100561.38;5112343;28;19967;-37
2022/09/30 05:26:31;;;;;;;;;;;;;;;20.58;47.39;100562.50;5110920;28;19939;-37
2022/09/30 05:28:57;;;;;;;;;;;;;;;20.54;45.62;100574.16;5113921;28;20027;-37
2022/09/30 05:31:22;;;;;;;;;;;;;;;20.52;44.98;100579.19;5094441;28;19980;-37
2022/09/30 05:33:48;;;;;;;;;;;;;;;20.50;45.43;100588.91;5114810;28;21710;-37
2022/09/30 05:36:14;;;;;;;;;;;;;;;20.51;44.82;100593.31;5117374;28;19976;-37
2022/09/30 05:38:40;;;;;;;;;;;;;;;20.50;44.66;100598.00;5096645;28;19928;-37
2022/09/30 05:41:07;;;;;;;;;;;;;;;20.49;44.43;100601.09;5109464;28;19951;-37
2022/09/30 05:43:33;;;;;;;;;;;;;;;20.48;44.79;100608.56;5117520;28;19977;-37
2022/09/30 05:45:58;;;;;;;;;;;;;;;20.48;44.62;100616.03;5097114;28;19923;-38
2022/09/30 05:48:24;;;;;;;;;;;;;;;20.47;44.36;100611.59;5114224;28;20048;-38
2022/09/30 05:50:58;;;;;;;;;;;;;;;19.82;44.63;100611.25;5115560;28;19928;-38
2022/09/30 05:53:24;;;;;;;;;;;;;;;20.24;43.97;100611.31;5114260;28;19963;-37
2022/09/30 05:55:50;;;;;;;;;;;;;;;20.40;44.29;100609.19;5112882;28;20018;-37
2022/09/30 05:58:15;;;;;;;;;;;;;;;20.47;45.48;100606.91;5120963;28;20479;-37
2022/09/30 06:00:41;;;;;;;;;;;;;;;20.50;46.52;100611.03;5114095;28;19932;-37
2022/09/30 06:03:07;;;;;;;;;;;;;;;20.52;46.54;100617.09;5099005;28;19931;-37
2022/09/30 06:05:33;;;;;;;;;;;;;;;20.54;46.68;100614.84;5109689;28;19927;-37
2022/09/30 06:07:58;;;;;;;;;;;;;;;20.55;46.92;100624.78;5096152;28;19924;-38
2022/09/30 06:10:24;;;;;;;;;;;;;;;20.55;46.99;100627.53;5116801;28;20295;-37
2022/09/30 06:12:50;;;;;;;;;;;;;;;20.56;47.01;100626.44;5114890;28;20240;-37
2022/09/30 06:15:16;;;;;;;;;;;;;;;20.21;47.19;100623.00;5111478;28;20019;-39
2022/09/30 06:17:42;;;;;;;;;;;;;;;20.38;46.96;100610.59;5089608;28;19932;-37
2022/09/30 06:20:08;;;;;;;;;;;;;;;20.49;47.04;100621.28;5111123;28;19978;-37
2022/09/30 06:22:34;;;;;;;;;;;;;;;20.53;47.24;100627.03;5101364;28;20008;-37
2022/09/30 06:25:01;;;;;;;;;;;;;;;20.56;47.11;100634.75;5110204;28;20361;-37
2022/09/30 06:27:27;;;;;;;;;;;;;;;20.56;47.28;100631.97;5113384;28;20029;-37
2022/09/30 06:29:52;;;;;;;;;;;;;;;20.57;47.36;100635.56;5110503;28;19935;-37
2022/09/30 06:32:18;;;;;;;;;;;;;;;20.58;47.17;100639.97;5110820;28;20260;-37
2022/09/30 06:34:44;;;;;;;;;;;;;;;20.59;46.99;100658.22;5108182;28;19924;-37
2022/09/30 06:37:12;;;;;;;;;;;;;;;20.59;46.91;100658.22;5107359;28;19993;-38
2022/09/30 06:39:39;;;;;;;;;;;;;;;20.56;46.88;100661.59;5105690;28;19924;-38
2022/09/30 06:42:04;;;;;;;;;;;;;;;20.61;46.69;100667.06;5107220;28;20424;-37
2022/09/30 06:44:30;;;;;;;;;;;;;;;20.61;46.39;100673.41;5105942;28;19932;-37
2022/09/30 06:46:58;;;;;;;;;;;;;;;20.61;46.78;100670.66;5107217;28;19951;-37
2022/09/30 06:49:24;;;;;;;;;;;;;;;20.61;46.54;100681.72;5108591;28;19967;-37
2022/09/30 06:51:50;;;;;;;;;;;;;;;20.60;46.56;100679.25;5089183;28;20009;-37
2022/09/30 06:54:15;;;;;;;;;;;;;;;20.62;46.62;100685.28;5107643;28;19927;-37
2022/09/30 06:56:42;;;;;;;;;;;;;;;20.63;47.02;100684.16;5096068;28;19924;-37
2022/09/30 06:59:08;;;;;;;;;;;;;;;20.62;46.92;100682.53;5091648;28;20388;-37
2022/09/30 07:01:33;;;;;;;;;;;;;;;20.61;46.71;100687.25;5089388;28;19931;-37
2022/09/30 07:04:02;;;;;;;;;;;;;;;20.61;46.62;100681.72;5088940;28;19932;-37
2022/09/30 07:06:28;;;;;;;;;;;;;;;20.62;46.76;100690.84;5083979;28;19924;-37
2022/09/30 07:08:55;;;;;;;;;;;;;;;20.63;46.95;100690.53;5067804;28;19967;-37
2022/09/30 07:11:21;;;;;;;;;;;;;;;20.64;46.13;100692.19;5090169;28;20047;-38
2022/09/30 07:13:48;;;;;;;;;;;;;;;20.68;46.71;100687.72;5098871;28;20155;-38
2022/09/30 07:16:13;;;;;;;;;;;;;;;20.68;46.41;100695.16;5094500;28;20023;-38
2022/09/30 07:18:41;;;;;;;;;;;;;;;20.66;46.51;100692.72;5093378;28;19977;-37
2022/09/30 07:21:07;;;;;;;;;;;;;;;20.66;46.30;100700.19;5078296;28;19978;-37
2022/09/30 07:23:32;;;;;;;;;;;;;;;20.65;46.20;100702.13;5076231;28;19932;-37
2022/09/30 07:26:02;;;;;;;;;;;;;;;20.66;46.55;100703.78;5094115;28;19932;-37
2022/09/30 07:28:30;;;;;;;;;;;;;;;20.66;46.32;100708.50;5096275;28;19982;-37
2022/09/30 07:30:57;;;;;;;;;;;;;;;20.67;46.55;100707.38;5083569;28;19955;-37
2022/09/30 07:33:43;;;;;;;;;;;;;;;20.67;46.56;100704.59;5070488;28;19985;-37
2022/09/30 07:36:09;;;;;;;;;;;;;;;20.69;47.07;100702.38;5095906;28;20252;-38
2022/09/30 07:38:36;;;;;;;;;;;;;;;20.73;46.87;100711.72;5079893;28;19978;-37
2022/09/30 07:41:07;;;;;;;;;;;;;;;20.71;46.64;100698.16;5078093;28;20015;-37
2022/09/30 07:43:36;;;;;;;;;;;;;;;20.70;46.83;100702.06;5074275;28;20450;-37
2022/09/30 07:46:04;;;;;;;;;;;;;;;20.71;46.94;100700.13;5070815;28;20038;-37
2022/09/30 07:49:03;;;;;;;;;;;;;;;20.68;46.51;100697.94;5083197;28;20291;-38
2022/09/30 07:51:16;;;;;;;;;;;;;;;20.68;46.63;100706.25;5083574;28;20018;-37
2022/09/30 07:53:42;;;;;;;;;;;;;;;20.72;47.19;100712.81;5080695;28;20031;-37
2022/09/30 07:56:08;;;;;;;;;;;;;;;20.73;46.47;100712.56;5075938;28;20023;-37
2022/09/30 07:58:33;;;;;;;;;;;;;;;20.74;46.63;100716.13;5078383;28;20703;-37
2022/09/30 08:00:59;;;;;;;;;;;;;;;20.71;46.98;100706.47;5095585;28;19935;-38
2022/09/30 08:03:24;;;;;;;;;;;;;;;20.76;47.16;100711.13;5098784;28;19930;-38
2022/09/30 08:05:50;;;;;;;;;;;;;;;20.76;46.92;100711.94;5091216;28;20404;-37
2022/09/30 08:08:16;;;;;;;;;;;;;;;20.64;46.12;100713.47;5100411;28;19924;-39
2022/09/30 08:10:41;;;;;;;;;;;;;;;20.52;46.55;100711.97;5099095;28;19928;-38
2022/09/30 08:13:07;;;;;;;;;;;;;;;20.56;46.33;100712.22;5097866;28;19950;-38
2022/09/30 08:15:32;;;;;;;;;;;;;;;20.67;46.75;100713.72;5099270;28;21414;-37
2022/09/30 08:17:58;;;;;;;;;;;;;;;20.63;47.35;100709.91;5095733;28;19924;-45
2022/09/30 08:20:24;;;;;;;;;;;;;;;20.50;46.56;100707.84;5094098;28;19924;-41
2022/09/30 08:22:53;;;;;;;;;;;;;;;20.45;47.07;100708.69;5094546;28;19947;-39
2022/09/30 08:25:18;;;;;;;;;;;;;;;20.48;46.49;100705.38;5080374;28;20351;-41
2022/09/30 08:27:44;;;;;;;;;;;;;;;20.48;46.37;100710.09;5091459;28;19935;-41
2022/09/30 08:30:11;;;;;;;;;;;;;;;20.48;46.44;100713.69;5094553;28;19939;-40
2022/09/30 08:32:37;;;;;;;;;;;;;;;20.45;46.35;100699.59;5090600;28;19960;-40
2022/09/30 08:35:02;;;;;;;;;;;;;;;20.45;46.32;100710.66;5093761;28;19931;-40
2022/09/30 08:37:28;;;;;;;;;;;;;;;20.49;46.45;100707.03;5088189;28;20535;-40
2022/09/30 08:39:53;;;;;;;;;;;;;;;20.45;46.20;100711.47;5093987;28;19935;-40
2022/09/30 08:42:39;;;;;;;;;;;;;;;20.42;46.11;100708.47;5089431;28;20312;-40
2022/09/30 08:45:17;;;;;;;;;;;;;;;20.40;45.91;100706.00;5076928;28;20026;-40
2022/09/30 08:47:48;;;;;;;;;;;;;;;20.39;46.02;100715.41;5089300;28;19959;-40
2022/09/30 08:50:15;;;;;;;;;;;;;;;20.44;45.84;100712.59;5094450;28;20019;-40
2022/09/30 08:52:42;;;;;;;;;;;;;;;20.43;45.73;100712.91;5099382;28;20872;-41
2022/09/30 08:55:22;;;;;;;;;;;;;;;20.42;45.52;100716.75;5099545;28;19924;-39
2022/09/30 08:57:48;;;;;;;;;;;;;;;20.60;45.60;100720.75;5097431;28;19970;-38
2022/09/30 09:00:15;;;;;;;;;;;;;;;20.66;45.43;100717.59;5092876;28;20303;-38
2022/09/30 09:02:43;;;;;;;;;;;;;;;20.69;45.62;100718.97;5091690;28;20638;-38
2022/09/30 09:05:12;;;;;;;;;;;;;;;20.67;45.15;100713.72;5088877;28;19984;-42
2022/09/30 09:07:57;;;;;;;;;;;;;;;20.67;45.91;100716.47;5094362;28;20371;-38
2022/09/30 09:10:26;;;;;;;;;;;;;;;20.47;45.73;100711.19;5078707;28;19970;-40
2022/09/30 09:13:12;;;;;;;;;;;;;;;20.64;45.76;100717.09;5098892;28;19932;-38
2022/09/30 09:15:57;;;;;;;;;;;;;;;20.70;45.46;100713.13;5079393;28;20022;-38
2022/09/30 09:18:28;;;;;;;;;;;;;;;20.71;45.77;100725.84;5087738;28;19971;-38
2022/09/30 09:20:54;;;;;;;;;;;;;;;20.74;45.62;100718.91;5082261;28;19993;-38
2022/09/30 09:23:20;;;;;;;;;;;;;;;20.74;45.94;100714.19;5098981;28;19974;-38
2022/09/30 09:25:51;;;;;;;;;;;;;;;20.75;45.63;100715.84;5092372;28;20112;-38
2022/09/30 09:28:26;;;;;;;;;;;;;;;20.75;45.82;100715.84;5095072;28;20069;-38
2022/09/30 09:30:53;;;;;;;;;;;;;;;20.80;46.28;100715.75;5093615;28;19988;-38
2022/09/30 09:33:21;;;;;;;;;;;;;;;20.87;45.98;100707.09;5093118;28;19966;-38
2022/09/30 09:36:07;;;;;;;;;;;;;;;20.86;45.51;100708.22;5072672;28;21533;-38
2022/09/30 09:38:52;;;;;;;;;;;;;;;20.80;45.92;100715.75;5079658;28;19997;-38
2022/09/30 09:41:38;;;;;;;;;;;;;;;20.80;45.88;100707.44;5078738;28;20014;-38
2022/09/30 09:44:08;;;;;;;;;;;;;;;20.80;46.05;100706.63;5094309;28;20022;-38
2022/09/30 09:46:40;;;;;;;;;;;;;;;20.79;46.11;100703.03;5095416;28;20066;-38
2022/09/30 09:51:50;;;;;;;;;;;;;;;20.82;46.11;100706.34;5154113;27;20404;-38
2022/09/30 09:54:16;;;;;;;;;;;;;;;20.79;45.47;100714.13;5151943;27;19981;-38
2022/09/30 09:56:41;;;;;;;;;;;;;;;20.79;46.05;100716.88;5134678;27;20329;-38
2022/09/30 09:59:09;;;;;;;;;;;;;;;20.45;45.04;100710.66;5141024;27;19927;-38
2022/09/30 10:01:36;;;;;;;;;;;;;;;20.59;45.19;100708.00;5111554;27;20573;-38
2022/09/30 10:04:08;;;;;;;;;;;;;;;20.70;45.20;100715.09;5113393;27;19934;-38
2022/09/30 10:06:43;;;;;;;;;;;;;;;20.80;45.67;100709.41;5116148;27;20390;-38
2022/09/30 10:09:10;;;;;;;;;;;;;;;20.78;45.40;100704.19;5119863;27;20203;-37
2022/09/30 10:11:36;;;;;;;;;;;;;;;20.68;45.39;100695.16;5141036;27;20027;-38
2022/09/30 10:14:01;;;;;;;;;;;;;;;20.62;45.80;100688.06;5134137;27;20240;-39
2022/09/30 10:16:29;;;;;;;;;;;;;;;20.75;45.63;100693.69;5138079;27;19924;-38
2022/09/30 10:18:55;;;;;;;;;;;;;;;20.79;45.58;100694.75;5118386;27;20643;-38
2022/09/30 10:21:21;;;;;;;;;;;;;;;20.83;45.70;100699.69;5140019;27;19938;-38
2022/09/30 10:23:47;;;;;;;;;;;;;;;20.81;45.50;100697.19;5120330;27;20045;-38
2022/09/30 10:26:15;;;;;;;;;;;;;;;20.82;45.81;100687.81;5119711;27;19923;-38
2022/09/30 10:28:46;;;;;;;;;;;;;;;20.83;45.79;100685.84;5137577;27;19943;-38
2022/09/30 10:31:13;;;;;;;;;;;;;;;20.78;45.61;100684.81;5119660;27;19958;-38
2022/09/30 10:33:41;;;;;;;;;;;;;;;20.74;45.42;100694.81;5138747;27;19931;-37
2022/09/30 10:36:08;;;;;;;;;;;;;;;20.79;45.48;100700.28;5138344;27;19958;-38
2022/09/30 10:38:34;;;;;;;;;;;;;;;20.67;44.91;100696.28;5120197;27;21334;-38
2022/09/30 10:41:00;;;;;;;;;;;;;;;20.57;45.03;100686.19;5116825;27;20017;-40
2022/09/30 10:43:37;;;;;;;;;;;;;;;20.76;45.09;100691.75;5130450;27;20296;-37
2022/09/30 10:46:03;;;;;;;;;;;;;;;20.82;45.37;100696.09;5120891;27;19962;-38
2022/09/30 10:48:48;;;;;;;;;;;;;;;20.82;45.38;100703.59;5115486;27;19939;-38
2022/09/30 10:51:19;;;;;;;;;;;;;;;20.84;45.53;100704.91;5114466;27;20359;-38
2022/09/30 10:53:45;;;;;;;;;;;;;;;20.87;45.57;100700.75;5116902;27;20016;-38
2022/09/30 10:56:11;;;;;;;;;;;;;;;20.88;45.39;100691.31;5130062;27;19932;-38
2022/09/30 10:58:41;;;;;;;;;;;;;;;20.86;45.21;100699.94;5128065;27;19924;-39
2022/09/30 11:01:16;;;;;;;;;;;;;;;20.87;45.39;100693.25;5128271;27;19942;-38
2022/09/30 11:03:47;;;;;;;;;;;;;;;20.78;45.09;100695.88;5096464;28;19931;-38
2022/09/30 11:06:14;;;;;;;;;;;;;;;20.84;44.86;100693.03;5114741;27;19955;-38
2022/09/30 11:08:48;;;;;;;;;;;;;;;20.88;45.06;100692.13;5119019;28;20292;-38
2022/09/30 11:11:20;;;;;;;;;;;;;;;20.87;45.09;100700.75;5119816;28;19982;-38
2022/09/30 11:13:49;;;;;;;;;;;;;;;20.86;45.42;100704.66;5097168;28;19966;-38
2022/09/30 11:16:35;;;;;;;;;;;;;;;20.86;45.58;100705.47;5122090;28;19928;-38
2022/09/30 11:19:03;;;;;;;;;;;;;;;20.88;45.48;100711.50;5106335;28;20094;-38
2022/09/30 11:21:49;;;;;;;;;;;;;;;20.88;45.29;100717.03;5098461;27;19973;-38
2022/09/30 11:24:20;;;;;;;;;;;;;;;20.90;45.57;100709.28;5106876;27;20022;-38
2022/09/30 11:26:49;;;;;;;;;;;;;;;20.89;45.32;100710.38;5114477;27;20006;-38
2022/09/30 11:29:23;;;;;;;;;;;;;;;20.92;45.73;100707.03;5115521;28;20308;-38
2022/09/30 11:31:58;;;;;;;;;;;;;;;20.90;45.37;100702.94;5116677;28;19935;-38
2022/09/30 11:34:35;;;;;;;;;;;;;;;20.89;45.68;100710.38;5097990;28;19931;-38
2022/09/30 11:37:05;;;;;;;;;;;;;;;20.91;45.52;100704.56;5112022;27;20346;-38
2022/09/30 11:39:51;;;;;;;;;;;;;;;20.93;45.96;100705.91;5106763;27;20459;-38
2022/09/30 11:42:27;;;;;;;;;;;;;;;20.92;45.67;100698.72;5101023;27;19959;-38
2022/09/30 11:44:56;;;;;;;;;;;;;;;20.91;45.22;100682.44;5110615;27;20379;-38
2022/09/30 11:47:26;;;;;;;;;;;;;;;20.91;45.41;100686.00;5112235;28;21027;-38
2022/09/30 11:50:12;;;;;;;;;;;;;;;20.91;45.18;100688.78;5119247;28;20015;-38
2022/09/30 11:52:44;;;;;;;;;;;;;;;20.92;45.14;100673.00;5106254;28;23469;-37
2022/09/30 11:55:28;;;;;;;;;;;;;;;20.92;45.27;100671.03;5121755;27;20026;-37
2022/09/30 11:58:06;;;;;;;;;;;;;;;20.93;45.50;100672.69;5122117;28;20010;-38
2022/09/30 12:00:54;;;;;;;;;;;;;;;20.92;45.24;100661.91;5093777;28;20262;-38
2022/09/30 12:03:35;;;;;;;;;;;;;;;20.94;45.08;100671.59;5126384;28;19938;-38
2022/09/30 12:06:02;;;;;;;;;;;;;;;20.93;45.21;100672.69;5121544;28;19934;-38
2022/09/30 12:08:29;;;;;;;;;;;;;;;20.94;45.44;100674.34;5106155;28;19965;-38
2022/09/30 12:11:14;;;;;;;;;;;;;;;20.95;45.58;100673.22;5103864;28;20026;-38
2022/09/30 12:13:43;;;;;;;;;;;;;;;20.94;45.43;100668.81;5105742;28;19942;-38
2022/09/30 12:16:11;;;;;;;;;;;;;;;20.94;45.24;100662.44;5103393;28;19923;-38
2022/09/30 12:18:38;;;;;;;;;;;;;;;20.95;45.50;100655.78;5125762;28;19931;-38
2022/09/30 12:21:15;;;;;;;;;;;;;;;20.94;44.77;100657.75;5111448;28;20010;-38
2022/09/30 12:23:42;;;;;;;;;;;;;;;20.94;44.76;100657.75;5126657;28;19977;-38
2022/09/30 12:26:08;;;;;;;;;;;;;;;20.95;44.49;100656.63;5107809;28;19963;-38
2022/09/30 12:31:50;;;;;;;;;;;;;;;20.75;41.89;100659.66;5112498;28;19955;-37
2022/09/30 12:34:36;;;;;;;;;;;;;;;20.92;42.04;100650.84;5106212;28;19924;-38
2022/09/30 12:37:04;;;;;;;;;;;;;;;20.69;39.88;100658.09;5109933;28;20219;-38
2022/09/30 12:39:36;;;;;;;;;;;;;;;20.91;41.42;100650.03;5106754;28;19971;-38
2022/09/30 12:42:06;;;;;;;;;;;;;;;20.98;41.64;100655.16;5128245;28;20216;-38
2022/09/30 12:44:51;;;;;;;;;;;;;;;20.99;42.08;100651.31;5110130;28;20391;-38
2022/09/30 12:47:19;;;;;;;;;;;;;;;20.99;42.91;100648.53;5108147;28;20018;-38
2022/09/30 12:49:45;;;;;;;;;;;;;;;20.98;42.27;100633.03;5128482;28;20052;-38
2022/09/30 12:52:12;;;;;;;;;;;;;;;20.99;42.79;100634.69;5127088;28;19939;-38
2022/09/30 12:54:39;;;;;;;;;;;;;;;20.99;43.57;100627.22;5125145;28;19970;-38
2022/09/30 12:57:06;;;;;;;;;;;;;;;21.01;44.10;100641.56;5124424;28;20048;-38
2022/09/30 12:59:32;;;;;;;;;;;;;;;21.00;43.81;100628.84;5126241;28;20025;-38
2022/09/30 13:01:58;;;;;;;;;;;;;;;20.97;42.06;100632.22;5132868;27;19931;-38